sensor_id;sensor_type;location;lat;lon;timestamp;P1;durP1;ratioP1;P2;durP2;ratioP2
11675;SDS011;5894;42.768;23.404;2022-11-27T00:02:05;201.60;;;67.53;;
11675;SDS011;5894;42.768;23.404;2022-11-27T00:04:32;97.23;;;37.93;;
11675;SDS011;5894;42.768;23.404;2022-11-27T00:06:59;75.00;;;31.93;;
11675;SDS011;5894;42.768;23.404;2022-11-27T00:09:25;51.93;;;26.10;;
11675;SDS011;5894;42.768;23.404;2022-11-27T00:11:52;41.97;;;21.33;;
11675;SDS011;5894;42.768;23.404;2022-11-27T00:14:19;29.57;;;17.17;;
11675;SDS011;5894;42.768;23.404;2022-11-27T00:16:47;25.60;;;14.77;;
11675;SDS011;5894;42.768;23.404;2022-11-27T00:19:14;25.03;;;14.03;;
11675;SDS011;5894;42.768;23.404;2022-11-27T00:21:41;21.77;;;13.90;;
11675;SDS011;5894;42.768;23.404;2022-11-27T00:24:09;23.93;;;13.90;;
11675;SDS011;5894;42.768;23.404;2022-11-27T00:26:37;23.23;;;13.73;;
11675;SDS011;5894;42.768;23.404;2022-11-27T00:29:04;22.03;;;13.63;;
11675;SDS011;5894;42.768;23.404;2022-11-27T00:31:35;19.90;;;12.60;;
11675;SDS011;5894;42.768;23.404;2022-11-27T00:34:04;17.50;;;11.63;;
11675;SDS011;5894;42.768;23.404;2022-11-27T00:36:33;24.13;;;12.80;;
11675;SDS011;5894;42.768;23.404;2022-11-27T00:39:00;21.37;;;13.10;;
11675;SDS011;5894;42.768;23.404;2022-11-27T00:41:28;33.87;;;18.03;;
11675;SDS011;5894;42.768;23.404;2022-11-27T00:43:56;48.30;;;23.73;;
11675;SDS011;5894;42.768;23.404;2022-11-27T00:46:24;55.60;;;27.83;;
11675;SDS011;5894;42.768;23.404;2022-11-27T00:48:52;46.73;;;23.83;;
11675;SDS011;5894;42.768;23.404;2022-11-27T00:51:21;55.30;;;25.73;;
11675;SDS011;5894;42.768;23.404;2022-11-27T00:53:48;49.87;;;24.23;;
11675;SDS011;5894;42.768;23.404;2022-11-27T00:56:16;52.07;;;26.53;;
11675;SDS011;5894;42.768;23.404;2022-11-27T00:58:48;47.90;;;24.10;;
11675;SDS011;5894;42.768;23.404;2022-11-27T01:01:16;44.83;;;24.43;;
11675;SDS011;5894;42.768;23.404;2022-11-27T01:03:45;42.37;;;24.30;;
11675;SDS011;5894;42.768;23.404;2022-11-27T01:06:12;38.77;;;24.60;;
11675;SDS011;5894;42.768;23.404;2022-11-27T01:08:41;41.60;;;23.50;;
11675;SDS011;5894;42.768;23.404;2022-11-27T01:11:11;43.53;;;24.87;;
11675;SDS011;5894;42.768;23.404;2022-11-27T01:13:39;42.20;;;24.03;;
11675;SDS011;5894;42.768;23.404;2022-11-27T01:16:07;41.27;;;25.03;;
11675;SDS011;5894;42.768;23.404;2022-11-27T01:18:36;43.13;;;24.50;;
11675;SDS011;5894;42.768;23.404;2022-11-27T01:21:04;41.67;;;24.83;;
11675;SDS011;5894;42.768;23.404;2022-11-27T01:23:31;40.40;;;24.23;;
11675;SDS011;5894;42.768;23.404;2022-11-27T01:26:00;40.57;;;24.33;;
11675;SDS011;5894;42.768;23.404;2022-11-27T01:28:27;40.50;;;25.10;;
11675;SDS011;5894;42.768;23.404;2022-11-27T01:30:55;39.10;;;23.90;;
11675;SDS011;5894;42.768;23.404;2022-11-27T01:33:22;38.43;;;23.20;;
11675;SDS011;5894;42.768;23.404;2022-11-27T01:35:52;35.70;;;23.63;;
11675;SDS011;5894;42.768;23.404;2022-11-27T01:38:20;35.70;;;23.67;;
11675;SDS011;5894;42.768;23.404;2022-11-27T01:40:47;35.17;;;23.07;;
11675;SDS011;5894;42.768;23.404;2022-11-27T01:43:15;37.07;;;24.20;;
11675;SDS011;5894;42.768;23.404;2022-11-27T01:45:43;35.90;;;22.97;;
11675;SDS011;5894;42.768;23.404;2022-11-27T01:48:10;36.07;;;23.47;;
11675;SDS011;5894;42.768;23.404;2022-11-27T01:50:38;50.37;;;30.57;;
11675;SDS011;5894;42.768;23.404;2022-11-27T01:53:06;59.87;;;30.50;;
11675;SDS011;5894;42.768;23.404;2022-11-27T01:55:39;39.03;;;23.40;;
11675;SDS011;5894;42.768;23.404;2022-11-27T01:58:11;38.47;;;23.10;;
11675;SDS011;5894;42.768;23.404;2022-11-27T02:00:41;37.50;;;22.40;;
11675;SDS011;5894;42.768;23.404;2022-11-27T02:03:08;30.83;;;19.63;;
11675;SDS011;5894;42.768;23.404;2022-11-27T02:05:35;29.73;;;19.23;;
11675;SDS011;5894;42.768;23.404;2022-11-27T02:08:04;29.43;;;18.97;;
11675;SDS011;5894;42.768;23.404;2022-11-27T02:10:37;32.23;;;19.97;;
11675;SDS011;5894;42.768;23.404;2022-11-27T02:13:11;31.03;;;19.00;;
11675;SDS011;5894;42.768;23.404;2022-11-27T02:15:42;32.37;;;20.40;;
11675;SDS011;5894;42.768;23.404;2022-11-27T02:18:13;30.73;;;20.00;;
11675;SDS011;5894;42.768;23.404;2022-11-27T02:20:50;33.30;;;20.37;;
11675;SDS011;5894;42.768;23.404;2022-11-27T02:23:28;31.17;;;18.37;;
11675;SDS011;5894;42.768;23.404;2022-11-27T02:26:12;28.43;;;18.20;;
11675;SDS011;5894;42.768;23.404;2022-11-27T02:28:57;28.23;;;18.07;;
11675;SDS011;5894;42.768;23.404;2022-11-27T02:31:30;29.57;;;18.40;;
11675;SDS011;5894;42.768;23.404;2022-11-27T02:34:05;31.80;;;20.23;;
11675;SDS011;5894;42.768;23.404;2022-11-27T02:36:43;33.80;;;22.17;;
11675;SDS011;5894;42.768;23.404;2022-11-27T02:39:16;34.63;;;22.63;;
11675;SDS011;5894;42.768;23.404;2022-11-27T02:41:46;34.53;;;20.90;;
11675;SDS011;5894;42.768;23.404;2022-11-27T02:44:20;31.80;;;20.53;;
11675;SDS011;5894;42.768;23.404;2022-11-27T02:46:49;32.93;;;22.57;;
11675;SDS011;5894;42.768;23.404;2022-11-27T02:49:17;34.07;;;23.27;;
11675;SDS011;5894;42.768;23.404;2022-11-27T02:51:46;33.50;;;23.33;;
11675;SDS011;5894;42.768;23.404;2022-11-27T02:54:17;36.57;;;24.83;;
11675;SDS011;5894;42.768;23.404;2022-11-27T02:56:49;33.07;;;23.50;;
11675;SDS011;5894;42.768;23.404;2022-11-27T02:59:17;34.07;;;24.23;;
11675;SDS011;5894;42.768;23.404;2022-11-27T03:01:48;32.80;;;23.40;;
11675;SDS011;5894;42.768;23.404;2022-11-27T03:04:19;35.83;;;23.93;;
11675;SDS011;5894;42.768;23.404;2022-11-27T03:06:53;33.57;;;24.43;;
11675;SDS011;5894;42.768;23.404;2022-11-27T03:09:24;32.77;;;23.83;;
11675;SDS011;5894;42.768;23.404;2022-11-27T03:11:54;33.40;;;23.77;;
11675;SDS011;5894;42.768;23.404;2022-11-27T03:14:23;34.93;;;24.30;;
11675;SDS011;5894;42.768;23.404;2022-11-27T03:16:54;33.63;;;23.67;;
11675;SDS011;5894;42.768;23.404;2022-11-27T03:19:29;32.70;;;21.87;;
11675;SDS011;5894;42.768;23.404;2022-11-27T03:22:01;33.43;;;22.83;;
11675;SDS011;5894;42.768;23.404;2022-11-27T03:24:29;33.87;;;22.07;;
11675;SDS011;5894;42.768;23.404;2022-11-27T03:26:59;33.73;;;23.17;;
11675;SDS011;5894;42.768;23.404;2022-11-27T03:29:28;31.43;;;21.73;;
11675;SDS011;5894;42.768;23.404;2022-11-27T03:32:00;33.63;;;23.03;;
11675;SDS011;5894;42.768;23.404;2022-11-27T03:34:27;35.07;;;22.40;;
11675;SDS011;5894;42.768;23.404;2022-11-27T03:36:54;30.90;;;22.33;;
11675;SDS011;5894;42.768;23.404;2022-11-27T03:39:21;30.90;;;21.33;;
11675;SDS011;5894;42.768;23.404;2022-11-27T03:41:52;28.60;;;19.97;;
11675;SDS011;5894;42.768;23.404;2022-11-27T03:44:34;30.53;;;20.27;;
11675;SDS011;5894;42.768;23.404;2022-11-27T03:47:09;29.23;;;19.23;;
11675;SDS011;5894;42.768;23.404;2022-11-27T03:49:47;35.77;;;20.43;;
11675;SDS011;5894;42.768;23.404;2022-11-27T03:52:23;32.40;;;21.83;;
11675;SDS011;5894;42.768;23.404;2022-11-27T03:54:57;32.40;;;21.20;;
11675;SDS011;5894;42.768;23.404;2022-11-27T03:57:32;34.10;;;21.70;;
11675;SDS011;5894;42.768;23.404;2022-11-27T04:00:06;33.37;;;22.10;;
11675;SDS011;5894;42.768;23.404;2022-11-27T04:02:38;35.27;;;22.97;;
11675;SDS011;5894;42.768;23.404;2022-11-27T04:05:07;33.73;;;23.07;;
11675;SDS011;5894;42.768;23.404;2022-11-27T04:07:34;36.97;;;22.80;;
11675;SDS011;5894;42.768;23.404;2022-11-27T04:10:01;37.13;;;22.97;;
11675;SDS011;5894;42.768;23.404;2022-11-27T04:12:28;36.13;;;22.83;;
11675;SDS011;5894;42.768;23.404;2022-11-27T04:14:55;35.80;;;22.03;;
11675;SDS011;5894;42.768;23.404;2022-11-27T04:17:23;32.70;;;21.83;;
11675;SDS011;5894;42.768;23.404;2022-11-27T04:19:50;30.97;;;21.47;;
11675;SDS011;5894;42.768;23.404;2022-11-27T04:22:17;34.40;;;22.73;;
11675;SDS011;5894;42.768;23.404;2022-11-27T04:24:44;33.93;;;22.50;;
11675;SDS011;5894;42.768;23.404;2022-11-27T04:27:11;33.23;;;22.23;;
11675;SDS011;5894;42.768;23.404;2022-11-27T04:29:37;37.20;;;22.27;;
11675;SDS011;5894;42.768;23.404;2022-11-27T04:32:04;32.17;;;21.67;;
11675;SDS011;5894;42.768;23.404;2022-11-27T04:34:33;35.90;;;22.17;;
11675;SDS011;5894;42.768;23.404;2022-11-27T04:37:00;34.70;;;22.30;;
11675;SDS011;5894;42.768;23.404;2022-11-27T04:39:27;35.57;;;23.00;;
11675;SDS011;5894;42.768;23.404;2022-11-27T04:41:53;40.83;;;24.83;;
11675;SDS011;5894;42.768;23.404;2022-11-27T04:44:20;41.53;;;26.67;;
11675;SDS011;5894;42.768;23.404;2022-11-27T04:46:48;42.50;;;27.77;;
11675;SDS011;5894;42.768;23.404;2022-11-27T04:49:15;37.10;;;26.53;;
11675;SDS011;5894;42.768;23.404;2022-11-27T04:51:43;38.70;;;27.20;;
11675;SDS011;5894;42.768;23.404;2022-11-27T04:54:10;39.90;;;25.53;;
11675;SDS011;5894;42.768;23.404;2022-11-27T04:56:37;36.87;;;24.60;;
11675;SDS011;5894;42.768;23.404;2022-11-27T04:59:03;35.93;;;24.13;;
11675;SDS011;5894;42.768;23.404;2022-11-27T05:01:30;37.63;;;23.57;;
11675;SDS011;5894;42.768;23.404;2022-11-27T05:03:58;38.87;;;23.13;;
11675;SDS011;5894;42.768;23.404;2022-11-27T05:06:24;35.67;;;23.93;;
11675;SDS011;5894;42.768;23.404;2022-11-27T05:08:53;37.20;;;24.20;;
11675;SDS011;5894;42.768;23.404;2022-11-27T05:11:24;39.67;;;24.63;;
11675;SDS011;5894;42.768;23.404;2022-11-27T05:13:51;41.90;;;27.37;;
11675;SDS011;5894;42.768;23.404;2022-11-27T05:16:38;43.63;;;29.17;;
11675;SDS011;5894;42.768;23.404;2022-11-27T05:19:05;44.33;;;29.20;;
11675;SDS011;5894;42.768;23.404;2022-11-27T05:21:31;43.53;;;28.60;;
11675;SDS011;5894;42.768;23.404;2022-11-27T05:24:00;44.67;;;28.67;;
11675;SDS011;5894;42.768;23.404;2022-11-27T05:26:26;40.43;;;26.80;;
11675;SDS011;5894;42.768;23.404;2022-11-27T05:28:53;40.67;;;25.77;;
11675;SDS011;5894;42.768;23.404;2022-11-27T05:31:20;42.33;;;26.43;;
11675;SDS011;5894;42.768;23.404;2022-11-27T05:33:47;36.63;;;24.30;;
11675;SDS011;5894;42.768;23.404;2022-11-27T05:36:14;48.83;;;28.27;;
11675;SDS011;5894;42.768;23.404;2022-11-27T05:38:40;45.90;;;29.30;;
11675;SDS011;5894;42.768;23.404;2022-11-27T05:41:08;43.63;;;28.03;;
11675;SDS011;5894;42.768;23.404;2022-11-27T05:43:35;50.80;;;28.77;;
11675;SDS011;5894;42.768;23.404;2022-11-27T05:46:03;51.60;;;28.67;;
11675;SDS011;5894;42.768;23.404;2022-11-27T05:48:31;44.43;;;27.93;;
11675;SDS011;5894;42.768;23.404;2022-11-27T05:50:58;48.23;;;28.17;;
11675;SDS011;5894;42.768;23.404;2022-11-27T05:53:24;48.13;;;29.57;;
11675;SDS011;5894;42.768;23.404;2022-11-27T05:55:51;46.03;;;29.23;;
11675;SDS011;5894;42.768;23.404;2022-11-27T05:58:19;48.27;;;27.40;;
11675;SDS011;5894;42.768;23.404;2022-11-27T06:00:46;42.70;;;26.90;;
11675;SDS011;5894;42.768;23.404;2022-11-27T06:03:13;42.77;;;26.30;;
11675;SDS011;5894;42.768;23.404;2022-11-27T06:05:40;48.63;;;27.23;;
11675;SDS011;5894;42.768;23.404;2022-11-27T06:08:07;50.73;;;28.43;;
11675;SDS011;5894;42.768;23.404;2022-11-27T06:10:34;69.53;;;32.40;;
11675;SDS011;5894;42.768;23.404;2022-11-27T06:13:00;217.67;;;98.07;;
11675;SDS011;5894;42.768;23.404;2022-11-27T06:15:29;196.70;;;86.27;;
11675;SDS011;5894;42.768;23.404;2022-11-27T06:17:55;167.57;;;71.67;;
11675;SDS011;5894;42.768;23.404;2022-11-27T06:20:22;144.23;;;66.63;;
11675;SDS011;5894;42.768;23.404;2022-11-27T06:22:49;117.83;;;55.03;;
11675;SDS011;5894;42.768;23.404;2022-11-27T06:25:16;54.80;;;32.97;;
11675;SDS011;5894;42.768;23.404;2022-11-27T06:27:43;68.57;;;38.50;;
11675;SDS011;5894;42.768;23.404;2022-11-27T06:30:10;56.60;;;34.53;;
11675;SDS011;5894;42.768;23.404;2022-11-27T06:32:39;52.77;;;31.10;;
11675;SDS011;5894;42.768;23.404;2022-11-27T06:35:06;66.13;;;38.87;;
11675;SDS011;5894;42.768;23.404;2022-11-27T06:37:34;81.20;;;43.30;;
11675;SDS011;5894;42.768;23.404;2022-11-27T06:40:00;63.23;;;35.17;;
11675;SDS011;5894;42.768;23.404;2022-11-27T06:42:27;69.33;;;38.77;;
11675;SDS011;5894;42.768;23.404;2022-11-27T06:44:54;58.57;;;34.77;;
11675;SDS011;5894;42.768;23.404;2022-11-27T06:47:21;49.93;;;29.73;;
11675;SDS011;5894;42.768;23.404;2022-11-27T06:49:50;49.90;;;28.77;;
11675;SDS011;5894;42.768;23.404;2022-11-27T06:52:16;69.73;;;35.00;;
11675;SDS011;5894;42.768;23.404;2022-11-27T06:54:43;64.50;;;32.80;;
11675;SDS011;5894;42.768;23.404;2022-11-27T06:57:10;56.13;;;30.53;;
11675;SDS011;5894;42.768;23.404;2022-11-27T06:59:38;44.67;;;25.13;;
11675;SDS011;5894;42.768;23.404;2022-11-27T07:02:05;38.53;;;22.63;;
11675;SDS011;5894;42.768;23.404;2022-11-27T07:04:32;33.73;;;21.97;;
11675;SDS011;5894;42.768;23.404;2022-11-27T07:07:00;45.07;;;27.27;;
11675;SDS011;5894;42.768;23.404;2022-11-27T07:09:27;39.10;;;25.60;;
11675;SDS011;5894;42.768;23.404;2022-11-27T07:11:54;37.87;;;23.40;;
11675;SDS011;5894;42.768;23.404;2022-11-27T07:14:20;35.80;;;23.87;;
11675;SDS011;5894;42.768;23.404;2022-11-27T07:16:47;40.20;;;26.50;;
11675;SDS011;5894;42.768;23.404;2022-11-27T07:19:14;38.27;;;24.87;;
11675;SDS011;5894;42.768;23.404;2022-11-27T07:21:41;42.37;;;25.20;;
11675;SDS011;5894;42.768;23.404;2022-11-27T07:24:09;38.80;;;24.17;;
11675;SDS011;5894;42.768;23.404;2022-11-27T07:26:36;40.00;;;24.40;;
11675;SDS011;5894;42.768;23.404;2022-11-27T07:29:02;41.43;;;24.57;;
11675;SDS011;5894;42.768;23.404;2022-11-27T07:31:29;41.87;;;25.63;;
11675;SDS011;5894;42.768;23.404;2022-11-27T07:33:57;40.07;;;24.53;;
11675;SDS011;5894;42.768;23.404;2022-11-27T07:36:24;38.33;;;24.70;;
11675;SDS011;5894;42.768;23.404;2022-11-27T07:38:54;42.33;;;25.43;;
11675;SDS011;5894;42.768;23.404;2022-11-27T07:41:23;35.97;;;24.27;;
11675;SDS011;5894;42.768;23.404;2022-11-27T07:43:50;59.30;;;30.97;;
11675;SDS011;5894;42.768;23.404;2022-11-27T07:46:18;57.40;;;29.10;;
11675;SDS011;5894;42.768;23.404;2022-11-27T07:48:46;46.50;;;25.37;;
11675;SDS011;5894;42.768;23.404;2022-11-27T07:51:14;38.63;;;23.57;;
11675;SDS011;5894;42.768;23.404;2022-11-27T07:53:41;41.77;;;24.30;;
11675;SDS011;5894;42.768;23.404;2022-11-27T07:56:09;35.43;;;22.70;;
11675;SDS011;5894;42.768;23.404;2022-11-27T07:58:38;37.03;;;23.03;;
11675;SDS011;5894;42.768;23.404;2022-11-27T08:01:06;42.13;;;26.53;;
11675;SDS011;5894;42.768;23.404;2022-11-27T08:03:34;47.63;;;29.23;;
11675;SDS011;5894;42.768;23.404;2022-11-27T08:06:02;47.67;;;31.80;;
11675;SDS011;5894;42.768;23.404;2022-11-27T08:08:29;48.13;;;31.70;;
11675;SDS011;5894;42.768;23.404;2022-11-27T08:10:56;46.60;;;31.23;;
11675;SDS011;5894;42.768;23.404;2022-11-27T08:13:22;46.10;;;29.57;;
11675;SDS011;5894;42.768;23.404;2022-11-27T08:15:50;51.00;;;31.23;;
11675;SDS011;5894;42.768;23.404;2022-11-27T08:18:18;48.00;;;31.00;;
11675;SDS011;5894;42.768;23.404;2022-11-27T08:20:45;42.13;;;28.53;;
11675;SDS011;5894;42.768;23.404;2022-11-27T08:23:11;41.93;;;27.03;;
11675;SDS011;5894;42.768;23.404;2022-11-27T08:25:38;40.40;;;26.83;;
11675;SDS011;5894;42.768;23.404;2022-11-27T08:28:05;92.77;;;49.30;;
11675;SDS011;5894;42.768;23.404;2022-11-27T08:30:32;91.67;;;49.13;;
11675;SDS011;5894;42.768;23.404;2022-11-27T08:33:00;94.57;;;50.23;;
11675;SDS011;5894;42.768;23.404;2022-11-27T08:35:27;68.63;;;41.80;;
11675;SDS011;5894;42.768;23.404;2022-11-27T08:37:54;42.87;;;26.97;;
11675;SDS011;5894;42.768;23.404;2022-11-27T08:40:20;47.67;;;29.73;;
11675;SDS011;5894;42.768;23.404;2022-11-27T08:42:47;44.13;;;29.70;;
11675;SDS011;5894;42.768;23.404;2022-11-27T08:45:14;43.27;;;27.33;;
11675;SDS011;5894;42.768;23.404;2022-11-27T08:47:41;43.47;;;28.80;;
11675;SDS011;5894;42.768;23.404;2022-11-27T08:50:10;44.90;;;28.93;;
11675;SDS011;5894;42.768;23.404;2022-11-27T08:52:38;46.63;;;31.10;;
11675;SDS011;5894;42.768;23.404;2022-11-27T08:55:05;49.83;;;32.83;;
11675;SDS011;5894;42.768;23.404;2022-11-27T08:57:32;62.33;;;37.87;;
11675;SDS011;5894;42.768;23.404;2022-11-27T09:00:00;64.67;;;40.37;;
11675;SDS011;5894;42.768;23.404;2022-11-27T09:02:27;95.93;;;51.70;;
11675;SDS011;5894;42.768;23.404;2022-11-27T09:04:53;128.80;;;62.27;;
11675;SDS011;5894;42.768;23.404;2022-11-27T09:07:22;124.20;;;61.20;;
11675;SDS011;5894;42.768;23.404;2022-11-27T09:09:49;72.93;;;42.43;;
11675;SDS011;5894;42.768;23.404;2022-11-27T09:12:16;206.47;;;90.57;;
11675;SDS011;5894;42.768;23.404;2022-11-27T09:14:42;141.87;;;66.50;;
11675;SDS011;5894;42.768;23.404;2022-11-27T09:17:09;62.20;;;37.90;;
11675;SDS011;5894;42.768;23.404;2022-11-27T09:19:36;57.23;;;36.97;;
11675;SDS011;5894;42.768;23.404;2022-11-27T09:22:03;53.87;;;33.40;;
11675;SDS011;5894;42.768;23.404;2022-11-27T09:24:31;52.87;;;34.97;;
11675;SDS011;5894;42.768;23.404;2022-11-27T09:26:58;50.10;;;32.83;;
11675;SDS011;5894;42.768;23.404;2022-11-27T09:29:24;53.93;;;33.00;;
11675;SDS011;5894;42.768;23.404;2022-11-27T09:31:51;55.27;;;34.27;;
11675;SDS011;5894;42.768;23.404;2022-11-27T09:34:18;54.13;;;33.93;;
11675;SDS011;5894;42.768;23.404;2022-11-27T09:36:45;49.77;;;32.83;;
11675;SDS011;5894;42.768;23.404;2022-11-27T09:39:12;50.20;;;33.90;;
11675;SDS011;5894;42.768;23.404;2022-11-27T09:41:45;48.03;;;32.07;;
11675;SDS011;5894;42.768;23.404;2022-11-27T09:44:22;47.53;;;32.10;;
11675;SDS011;5894;42.768;23.404;2022-11-27T09:46:54;49.10;;;32.53;;
11675;SDS011;5894;42.768;23.404;2022-11-27T09:49:26;51.43;;;33.07;;
11675;SDS011;5894;42.768;23.404;2022-11-27T09:51:58;50.13;;;32.27;;
11675;SDS011;5894;42.768;23.404;2022-11-27T09:54:30;84.57;;;52.57;;
11675;SDS011;5894;42.768;23.404;2022-11-27T09:57:03;76.90;;;44.23;;
11675;SDS011;5894;42.768;23.404;2022-11-27T09:59:34;61.90;;;39.17;;
11675;SDS011;5894;42.768;23.404;2022-11-27T10:02:09;47.00;;;31.20;;
11675;SDS011;5894;42.768;23.404;2022-11-27T10:04:42;49.37;;;31.87;;
11675;SDS011;5894;42.768;23.404;2022-11-27T10:07:13;55.27;;;34.67;;
11675;SDS011;5894;42.768;23.404;2022-11-27T10:09:54;64.17;;;37.17;;
11675;SDS011;5894;42.768;23.404;2022-11-27T10:12:33;49.67;;;32.23;;
11675;SDS011;5894;42.768;23.404;2022-11-27T10:15:06;49.37;;;32.90;;
11675;SDS011;5894;42.768;23.404;2022-11-27T10:17:41;50.20;;;34.37;;
11675;SDS011;5894;42.768;23.404;2022-11-27T10:20:15;40.47;;;28.07;;
11675;SDS011;5894;42.768;23.404;2022-11-27T10:22:49;40.83;;;27.77;;
11675;SDS011;5894;42.768;23.404;2022-11-27T10:25:24;40.50;;;27.80;;
11675;SDS011;5894;42.768;23.404;2022-11-27T10:28:04;42.67;;;27.93;;
11675;SDS011;5894;42.768;23.404;2022-11-27T10:30:43;42.87;;;29.73;;
11675;SDS011;5894;42.768;23.404;2022-11-27T10:33:19;49.40;;;32.53;;
11675;SDS011;5894;42.768;23.404;2022-11-27T10:35:49;43.60;;;29.77;;
11675;SDS011;5894;42.768;23.404;2022-11-27T10:38:18;40.97;;;28.63;;
11675;SDS011;5894;42.768;23.404;2022-11-27T10:40:49;43.87;;;29.13;;
11675;SDS011;5894;42.768;23.404;2022-11-27T10:43:22;40.57;;;28.97;;
11675;SDS011;5894;42.768;23.404;2022-11-27T10:45:51;40.97;;;27.47;;
11675;SDS011;5894;42.768;23.404;2022-11-27T10:48:20;40.87;;;28.53;;
11675;SDS011;5894;42.768;23.404;2022-11-27T10:50:47;44.97;;;28.80;;
11675;SDS011;5894;42.768;23.404;2022-11-27T10:53:15;45.57;;;30.23;;
11675;SDS011;5894;42.768;23.404;2022-11-27T10:56:01;47.00;;;30.47;;
11675;SDS011;5894;42.768;23.404;2022-11-27T10:58:46;41.50;;;27.77;;
11675;SDS011;5894;42.768;23.404;2022-11-27T11:01:20;38.50;;;26.83;;
11675;SDS011;5894;42.768;23.404;2022-11-27T11:03:48;43.63;;;28.73;;
11675;SDS011;5894;42.768;23.404;2022-11-27T11:06:17;40.67;;;27.67;;
11675;SDS011;5894;42.768;23.404;2022-11-27T11:08:45;64.80;;;35.57;;
11675;SDS011;5894;42.768;23.404;2022-11-27T11:11:12;48.63;;;30.83;;
11675;SDS011;5894;42.768;23.404;2022-11-27T11:13:50;39.47;;;26.37;;
11675;SDS011;5894;42.768;23.404;2022-11-27T11:16:18;32.47;;;22.77;;
11675;SDS011;5894;42.768;23.404;2022-11-27T11:18:48;44.30;;;23.40;;
11675;SDS011;5894;42.768;23.404;2022-11-27T11:21:18;66.13;;;25.67;;
11675;SDS011;5894;42.768;23.404;2022-11-27T11:23:51;60.10;;;23.10;;
11675;SDS011;5894;42.768;23.404;2022-11-27T11:26:24;36.70;;;22.23;;
11675;SDS011;5894;42.768;23.404;2022-11-27T11:28:56;34.13;;;22.27;;
11675;SDS011;5894;42.768;23.404;2022-11-27T11:31:29;31.37;;;21.27;;
11675;SDS011;5894;42.768;23.404;2022-11-27T11:33:59;34.17;;;23.00;;
11675;SDS011;5894;42.768;23.404;2022-11-27T11:36:30;41.63;;;23.17;;
11675;SDS011;5894;42.768;23.404;2022-11-27T11:38:57;37.73;;;23.07;;
11675;SDS011;5894;42.768;23.404;2022-11-27T11:41:24;42.27;;;22.10;;
11675;SDS011;5894;42.768;23.404;2022-11-27T11:44:03;43.30;;;23.77;;
11675;SDS011;5894;42.768;23.404;2022-11-27T11:46:31;52.43;;;28.47;;
11675;SDS011;5894;42.768;23.404;2022-11-27T11:49:01;46.83;;;25.80;;
11675;SDS011;5894;42.768;23.404;2022-11-27T11:51:38;42.43;;;25.60;;
11675;SDS011;5894;42.768;23.404;2022-11-27T11:54:18;37.80;;;23.87;;
11675;SDS011;5894;42.768;23.404;2022-11-27T11:56:56;41.00;;;25.47;;
11675;SDS011;5894;42.768;23.404;2022-11-27T11:59:30;48.27;;;26.57;;
11675;SDS011;5894;42.768;23.404;2022-11-27T12:02:11;49.00;;;28.50;;
11675;SDS011;5894;42.768;23.404;2022-11-27T12:05:02;31.20;;;20.17;;
11675;SDS011;5894;42.768;23.404;2022-11-27T12:10:36;28.10;;;17.43;;
11675;SDS011;5894;42.768;23.404;2022-11-27T12:13:16;24.03;;;16.77;;
11675;SDS011;5894;42.768;23.404;2022-11-27T12:15:51;25.93;;;18.63;;
11675;SDS011;5894;42.768;23.404;2022-11-27T12:18:29;22.90;;;16.60;;
11675;SDS011;5894;42.768;23.404;2022-11-27T12:21:11;26.93;;;18.03;;
11675;SDS011;5894;42.768;23.404;2022-11-27T12:23:49;21.40;;;14.70;;
11675;SDS011;5894;42.768;23.404;2022-11-27T12:26:25;23.43;;;13.63;;
11675;SDS011;5894;42.768;23.404;2022-11-27T12:29:06;24.83;;;15.60;;
11675;SDS011;5894;42.768;23.404;2022-11-27T12:31:49;21.83;;;14.57;;
11675;SDS011;5894;42.768;23.404;2022-11-27T12:34:35;18.47;;;13.30;;
11675;SDS011;5894;42.768;23.404;2022-11-27T12:37:12;19.10;;;13.03;;
11675;SDS011;5894;42.768;23.404;2022-11-27T12:39:54;20.90;;;13.73;;
11675;SDS011;5894;42.768;23.404;2022-11-27T12:42:30;19.93;;;14.53;;
11675;SDS011;5894;42.768;23.404;2022-11-27T12:45:03;21.37;;;16.53;;
11675;SDS011;5894;42.768;23.404;2022-11-27T12:47:39;18.97;;;12.73;;
11675;SDS011;5894;42.768;23.404;2022-11-27T12:50:09;19.10;;;13.33;;
11675;SDS011;5894;42.768;23.404;2022-11-27T12:52:46;19.53;;;12.57;;
11675;SDS011;5894;42.768;23.404;2022-11-27T12:55:22;17.67;;;12.47;;
11675;SDS011;5894;42.768;23.404;2022-11-27T12:57:51;17.50;;;11.90;;
11675;SDS011;5894;42.768;23.404;2022-11-27T13:00:23;18.23;;;11.93;;
11675;SDS011;5894;42.768;23.404;2022-11-27T13:02:58;18.03;;;12.57;;
11675;SDS011;5894;42.768;23.404;2022-11-27T13:05:31;19.00;;;12.80;;
11675;SDS011;5894;42.768;23.404;2022-11-27T13:08:04;20.00;;;12.60;;
11675;SDS011;5894;42.768;23.404;2022-11-27T13:10:39;17.70;;;11.87;;
11675;SDS011;5894;42.768;23.404;2022-11-27T13:13:10;23.23;;;14.10;;
11675;SDS011;5894;42.768;23.404;2022-11-27T13:15:41;21.67;;;13.57;;
11675;SDS011;5894;42.768;23.404;2022-11-27T13:18:14;21.37;;;13.30;;
11675;SDS011;5894;42.768;23.404;2022-11-27T13:20:45;18.17;;;10.70;;
11675;SDS011;5894;42.768;23.404;2022-11-27T13:23:14;10.60;;;7.17;;
11675;SDS011;5894;42.768;23.404;2022-11-27T13:25:41;5.90;;;4.63;;
11675;SDS011;5894;42.768;23.404;2022-11-27T13:28:14;7.37;;;4.70;;
11675;SDS011;5894;42.768;23.404;2022-11-27T13:30:48;8.50;;;4.30;;
11675;SDS011;5894;42.768;23.404;2022-11-27T13:33:23;3.73;;;3.33;;
11675;SDS011;5894;42.768;23.404;2022-11-27T13:36:00;9.87;;;6.67;;
11675;SDS011;5894;42.768;23.404;2022-11-27T13:38:31;18.23;;;8.73;;
11675;SDS011;5894;42.768;23.404;2022-11-27T13:41:00;10.53;;;5.90;;
11675;SDS011;5894;42.768;23.404;2022-11-27T13:43:33;6.10;;;5.00;;
11675;SDS011;5894;42.768;23.404;2022-11-27T13:46:06;7.33;;;5.77;;
11675;SDS011;5894;42.768;23.404;2022-11-27T13:48:37;6.67;;;5.23;;
11675;SDS011;5894;42.768;23.404;2022-11-27T13:51:07;23.13;;;13.83;;
11675;SDS011;5894;42.768;23.404;2022-11-27T13:53:36;15.23;;;9.40;;
11675;SDS011;5894;42.768;23.404;2022-11-27T13:56:05;10.27;;;5.70;;
11675;SDS011;5894;42.768;23.404;2022-11-27T13:58:35;6.13;;;4.10;;
11675;SDS011;5894;42.768;23.404;2022-11-27T14:01:13;7.37;;;3.77;;
11675;SDS011;5894;42.768;23.404;2022-11-27T14:03:43;18.80;;;7.53;;
11675;SDS011;5894;42.768;23.404;2022-11-27T14:06:17;33.13;;;12.43;;
11675;SDS011;5894;42.768;23.404;2022-11-27T14:08:51;79.73;;;24.40;;
11675;SDS011;5894;42.768;23.404;2022-11-27T14:11:29;46.10;;;18.17;;
11675;SDS011;5894;42.768;23.404;2022-11-27T14:13:59;50.23;;;17.90;;
11675;SDS011;5894;42.768;23.404;2022-11-27T14:16:36;30.90;;;13.47;;
11675;SDS011;5894;42.768;23.404;2022-11-27T14:19:06;38.40;;;14.90;;
11675;SDS011;5894;42.768;23.404;2022-11-27T14:21:49;17.00;;;8.30;;
11675;SDS011;5894;42.768;23.404;2022-11-27T14:24:26;67.43;;;26.77;;
11675;SDS011;5894;42.768;23.404;2022-11-27T14:27:15;20.40;;;11.77;;
11675;SDS011;5894;42.768;23.404;2022-11-27T14:29:44;22.23;;;12.17;;
11675;SDS011;5894;42.768;23.404;2022-11-27T14:32:13;29.23;;;16.60;;
11675;SDS011;5894;42.768;23.404;2022-11-27T14:34:42;31.10;;;15.47;;
11675;SDS011;5894;42.768;23.404;2022-11-27T14:37:18;76.53;;;31.13;;
11675;SDS011;5894;42.768;23.404;2022-11-27T14:39:46;21.40;;;12.50;;
11675;SDS011;5894;42.768;23.404;2022-11-27T14:42:18;71.97;;;33.03;;